Time;durP1;ratioP1;P1;durP2;ratioP2;P2;SDS_P1;SDS_P2;PMS_P1;PMS_P2;Temp;Humidity;BMP_temperature;BMP_pressure;BME280_temperature;BME280_humidity;BME280_pressure;Samples;Min_cycle;Max_cycle;Signal;HPM_P1;HPM_P2
2022/06/01 00:00:55;;;;;;;3.80;3.22;;;;;;;17.34;62.64;99749.31;4361172;32;34521;-85
2022/06/01 00:03:24;;;;;;;4.75;3.25;;;;;;;17.38;62.48;99739.28;4366565;32;33917;-84
2022/06/01 00:05:53;;;;;;;4.25;3.15;;;;;;;17.33;62.75;99733.44;4367861;32;34025;-83
2022/06/01 00:08:23;;;;;;;4.72;3.00;;;;;;;17.33;62.77;99741.44;4352089;32;33085;-83
2022/06/01 00:10:52;;;;;;;4.18;3.20;;;;;;;17.20;63.00;99737.94;4361616;32;33897;-83
2022/06/01 00:13:20;;;;;;;3.58;2.78;;;;;;;17.30;62.58;99734.50;4340241;32;33304;-83
2022/06/01 00:15:48;;;;;;;3.72;3.20;;;;;;;17.40;62.30;99745.34;4353621;32;33984;-83
2022/06/01 00:18:16;;;;;;;4.68;2.95;;;;;;;17.12;63.31;99734.00;4371744;32;33486;-83
2022/06/01 00:20:44;;;;;;;5.37;3.15;;;;;;;17.30;62.72;99736.31;4370451;32;33592;-83
2022/06/01 00:23:12;;;;;;;4.28;3.20;;;;;;;17.33;62.38;99728.94;4356285;32;33889;-85
2022/06/01 00:25:41;;;;;;;4.12;2.65;;;;;;;17.33;62.16;99730.75;4357486;32;33377;-85
2022/06/01 00:28:09;;;;;;;4.05;3.28;;;;;;;17.25;62.30;99728.63;4365908;32;33739;-84
2022/06/01 00:30:37;;;;;;;3.75;3.33;;;;;;;17.27;62.37;99728.53;4363596;32;34484;-84
2022/06/01 00:33:06;;;;;;;3.95;3.15;;;;;;;17.20;62.49;99733.47;4377839;32;33870;-84
2022/06/01 00:35:33;;;;;;;4.50;2.72;;;;;;;17.08;62.94;99731.66;4363965;32;33591;-84
2022/06/01 00:38:01;;;;;;;3.03;2.53;;;;;;;17.24;62.10;99731.44;4353701;32;32997;-85
2022/06/01 00:40:29;;;;;;;3.65;2.87;;;;;;;17.27;62.08;99725.84;4358679;32;33771;-84
2022/06/01 00:42:59;;;;;;;3.67;3.25;;;;;;;17.14;62.45;99726.75;4376115;32;33104;-84
2022/06/01 00:45:31;;;;;;;3.55;2.85;;;;;;;17.03;62.63;99718.66;4353398;32;32006;-84
2022/06/01 00:47:59;;;;;;;4.72;3.40;;;;;;;17.06;62.28;99717.59;4363260;32;33825;-84
2022/06/01 00:50:39;;;;;;;5.78;3.10;;;;;;;17.00;62.38;99718.87;4365376;32;34237;-83
2022/06/01 00:53:11;;;;;;;5.90;2.62;;;;;;;17.03;62.27;99718.66;4365891;32;33702;-84
2022/06/01 00:55:45;;;;;;;4.03;2.95;;;;;;;16.89;62.91;99710.78;4335738;32;32294;-84
2022/06/01 00:58:18;;;;;;;3.60;2.70;;;;;;;16.95;62.65;99715.69;4360396;32;34167;-83
2022/06/01 01:00:48;;;;;;;5.45;3.00;;;;;;;16.82;62.95;99725.53;4351275;32;35073;-83
2022/06/01 01:03:17;;;;;;;4.10;2.83;;;;;;;16.88;62.62;99715.25;4363063;32;34038;-83
2022/06/01 01:06:08;;;;;;;2.53;2.33;;;;;;;16.87;62.65;99718.06;4367564;32;34163;-84
2022/06/01 01:08:38;;;;;;;4.97;2.92;;;;;;;16.85;62.49;99714.62;4365041;32;32819;-84
2022/06/01 01:11:10;;;;;;;3.35;3.03;;;;;;;16.93;62.16;99714.09;4363119;32;33282;-84
2022/06/01 01:13:40;;;;;;;3.65;3.10;;;;;;;16.91;62.05;99719.53;4365807;32;33757;-83
2022/06/01 01:16:10;;;;;;;4.28;3.50;;;;;;;16.80;62.31;99722.94;4362959;32;31874;-83
2022/06/01 01:18:40;;;;;;;3.92;2.95;;;;;;;16.73;62.52;99723.50;4364008;32;32540;-83
2022/06/01 01:21:17;;;;;;;3.42;2.80;;;;;;;16.45;63.73;99728.06;4362778;32;33437;-83
2022/06/01 01:24:07;;;;;;;4.32;2.25;;;;;;;16.45;63.84;99725.38;4377549;32;34502;-83
2022/06/01 01:26:36;;;;;;;3.37;3.08;;;;;;;16.45;63.94;99725.38;4362796;32;32214;-83
2022/06/01 01:29:09;;;;;;;4.00;3.30;;;;;;;16.55;63.52;99729.13;4354488;32;33080;-84
2022/06/01 01:31:39;;;;;;;2.95;2.65;;;;;;;16.57;63.29;99721.88;4362368;32;34756;-84
2022/06/01 01:34:08;;;;;;;3.58;2.75;;;;;;;16.64;62.88;99728.47;4365289;32;33887;-83
2022/06/01 01:36:38;;;;;;;3.55;2.87;;;;;;;16.66;62.66;99725.69;4376461;32;33008;-83
2022/06/01 01:39:12;;;;;;;4.37;3.12;;;;;;;16.40;63.53;99719.53;4358394;32;33164;-83
2022/06/01 01:41:53;;;;;;;4.00;3.55;;;;;;;16.38;63.79;99719.66;4375423;32;34038;-83
2022/06/01 01:44:37;;;;;;;3.58;3.22;;;;;;;16.46;63.85;99712.91;4368493;32;34064;-83
2022/06/01 01:47:05;;;;;;;3.92;3.15;;;;;;;16.53;63.35;99715.06;4343884;32;34050;-83
2022/06/01 01:49:35;;;;;;;4.32;3.17;;;;;;;16.50;63.54;99709.94;4358465;32;33385;-85
2022/06/01 01:52:07;;;;;;;4.15;3.20;;;;;;;16.61;63.05;99710.03;4365450;32;32899;-85
2022/06/01 01:54:45;;;;;;;5.72;3.72;;;;;;;16.73;62.74;99704.84;4365300;32;34113;-85
2022/06/01 01:57:47;;;;;;;7.57;3.72;;;;;;;16.65;63.17;99708.84;4360624;32;33489;-85
2022/06/01 02:00:35;;;;;;;3.42;3.12;;;;;;;16.66;63.53;99704.37;4350350;32;32696;-85
2022/06/01 02:03:15;;;;;;;6.53;4.12;;;;;;;16.53;64.13;99700.88;4373355;32;34602;-85
2022/06/01 02:06:06;;;;;;;4.20;3.80;;;;;;;16.34;64.96;99701.31;4350358;32;32844;-85
2022/06/01 02:08:37;;;;;;;3.75;3.08;;;;;;;16.60;64.21;99699.47;4363598;32;33035;-85
2022/06/01 02:14:31;;;;;;;7.07;4.00;;;;;;;16.60;64.59;99700.31;4367644;32;33978;-84
2022/06/01 02:17:28;;;;;;;4.80;3.67;;;;;;;16.51;64.96;99703.63;4346169;32;33841;-84
2022/06/01 02:20:20;;;;;;;4.43;3.12;;;;;;;16.60;64.83;99702.16;4348143;32;32662;-83
2022/06/01 02:22:48;;;;;;;4.00;3.20;;;;;;;16.60;65.12;99699.47;4359560;32;33918;-83
2022/06/01 02:25:16;;;;;;;5.20;3.72;;;;;;;16.60;64.93;99700.31;4365981;32;33795;-83
2022/06/01 02:27:44;;;;;;;7.28;3.22;;;;;;;16.72;64.37;99692.47;4374397;32;33578;-84
2022/06/01 02:30:23;;;;;;;4.37;3.75;;;;;;;16.69;64.39;99695.31;4349192;32;32709;-84
2022/06/01 02:32:54;;;;;;;4.45;3.62;;;;;;;16.56;64.77;99701.50;4356624;32;33474;-83
2022/06/01 02:35:31;;;;;;;8.88;3.75;;;;;;;16.67;64.55;99702.59;4350464;32;33675;-84
2022/06/01 02:38:00;;;;;;;6.28;3.70;;;;;;;16.74;64.30;99706.53;4362375;32;34539;-84
2022/06/01 02:40:29;;;;;;;5.15;3.12;;;;;;;16.66;64.79;99704.37;4362909;32;33763;-85
2022/06/01 02:42:58;;;;;;;3.62;3.17;;;;;;;16.68;64.95;99706.94;4370587;32;33794;-85
2022/06/01 02:49:13;;;;;;;5.22;4.10;;;;;;;16.72;65.28;99697.81;4371171;32;34077;-84
2022/06/01 02:51:41;;;;;;;5.72;4.05;;;;;;;16.81;65.20;99694.50;4350010;32;32602;-84
2022/06/01 02:54:10;;;;;;;4.80;4.12;;;;;;;16.79;65.31;99696.41;4351810;32;33476;-84
2022/06/01 02:56:38;;;;;;;5.78;4.15;;;;;;;17.00;64.85;99697.56;4354930;32;33417;-84
2022/06/01 02:59:06;;;;;;;6.65;4.57;;;;;;;17.14;64.64;99694.75;4364467;32;34488;-84
2022/06/01 03:01:36;;;;;;;5.43;4.45;;;;;;;17.20;64.49;99703.25;4377105;32;33161;-84
2022/06/01 03:04:06;;;;;;;6.20;4.75;;;;;;;17.20;64.74;99700.59;4364676;32;32874;-84
2022/06/01 03:06:33;;;;;;;6.22;4.30;;;;;;;17.32;64.79;99692.53;4370615;32;34659;-86
2022/06/01 03:09:22;;;;;;;6.68;4.20;;;;;;;17.40;64.71;99698.16;4362459;32;34243;-86
2022/06/01 03:11:49;;;;;;;7.25;4.28;;;;;;;17.14;65.75;99693.88;4371597;32;33046;-86
2022/06/01 03:14:17;;;;;;;7.10;5.07;;;;;;;17.03;66.32;99691.97;4371952;32;33784;-86
2022/06/01 03:16:45;;;;;;;6.10;4.53;;;;;;;16.87;67.15;99691.38;4365332;32;34107;-87
2022/06/01 03:19:14;;;;;;;6.45;4.50;;;;;;;17.08;66.64;99692.50;4367485;32;32973;-87
2022/06/01 03:21:41;;;;;;;6.97;4.57;;;;;;;17.14;66.62;99689.41;4356495;32;32954;-88
2022/06/01 03:24:09;;;;;;;7.12;5.35;;;;;;;17.05;67.27;99687.41;4360832;32;32781;-87
2022/06/01 03:26:38;;;;;;;8.38;5.85;;;;;;;17.04;67.80;99682.16;4349374;32;32777;-88
2022/06/01 03:29:06;;;;;;;8.50;6.25;;;;;;;17.19;67.67;99675.72;4355864;32;32398;-88
2022/06/01 03:31:34;;;;;;;10.75;7.32;;;;;;;17.28;67.73;99683.06;4351123;32;33438;-87
2022/06/01 03:34:03;;;;;;;12.93;7.72;;;;;;;17.36;67.91;99687.81;4350304;32;33123;-87
2022/06/01 03:36:31;;;;;;;15.00;9.00;;;;;;;17.40;68.38;99700.81;4361576;32;32656;-88
2022/06/01 03:38:59;;;;;;;16.17;10.07;;;;;;;17.61;68.50;99713.53;4351335;32;32658;-88
2022/06/01 03:41:32;;;;;;;11.73;7.62;;;;;;;17.74;69.10;99756.25;4368469;32;33603;-87
2022/06/01 03:47:09;;;;;;;15.32;10.38;;;;;;;17.94;67.34;99768.97;4366199;32;33922;-85
2022/06/01 03:49:42;;;;;;;16.45;10.07;;;;;;;17.58;69.10;99768.03;4363265;32;32848;-85
2022/06/01 03:52:11;;;;;;;21.20;12.52;;;;;;;17.65;69.36;99768.44;4359206;32;32652;-85
2022/06/01 03:54:39;;;;;;;20.80;11.88;;;;;;;17.61;70.05;99775.84;4367521;32;33609;-85
2022/06/01 03:57:07;;;;;;;22.80;13.48;;;;;;;17.95;69.29;99765.34;4353063;32;34304;-85
2022/06/01 03:59:36;;;;;;;23.17;14.05;;;;;;;18.04;69.18;99774.47;4358415;32;33889;-85
2022/06/01 04:02:05;;;;;;;27.70;16.20;;;;;;;18.42;68.43;99766.25;4358022;32;32454;-84
2022/06/01 04:04:34;;;;;;;26.27;16.15;;;;;;;18.45;68.88;99757.97;4369493;32;33530;-85
2022/06/01 04:07:03;;;;;;;27.27;15.85;;;;;;;18.29;69.77;99757.47;4354581;32;34667;-85
2022/06/01 04:09:31;;;;;;;25.65;16.62;;;;;;;18.25;70.23;99750.66;4345801;32;32698;-85
2022/06/01 04:12:00;;;;;;;25.42;15.20;;;;;;;18.33;70.06;99751.75;4356346;32;34199;-87
2022/06/01 04:14:31;;;;;;;23.70;15.67;;;;;;;18.47;69.71;99763.19;4355503;32;34535;-87
2022/06/01 04:17:04;;;;;;;30.02;15.73;;;;;;;18.41;69.86;99761.84;4342731;32;32884;-87
2022/06/01 04:19:34;;;;;;;21.98;15.13;;;;;;;18.42;69.95;99763.59;4344802;32;32975;-86
2022/06/01 04:22:06;;;;;;;30.40;17.95;;;;;;;18.59;69.45;99759.59;4342019;32;33005;-86
2022/06/01 04:24:34;;;;;;;29.27;16.95;;;;;;;18.60;69.57;99751.44;4346719;32;33290;-86
2022/06/01 04:27:04;;;;;;;33.10;19.05;;;;;;;18.60;69.76;99756.78;4349386;32;33201;-86
2022/06/01 04:29:32;;;;;;;35.92;18.70;;;;;;;18.76;69.70;99755.66;4349214;32;33725;-87
2022/06/01 04:32:03;;;;;;;36.80;19.95;;;;;;;18.88;69.78;99765.37;4327740;32;32406;-86
2022/06/01 04:34:32;;;;;;;34.10;18.63;;;;;;;19.15;69.09;99760.50;4348302;32;35571;-85
2022/06/01 04:37:00;;;;;;;30.42;18.17;;;;;;;19.17;69.37;99766.56;4342677;32;34554;-86
2022/06/01 04:39:28;;;;;;;31.80;19.65;;;;;;;19.44;68.58;99757.31;4348224;32;33916;-86
2022/06/01 04:42:06;;;;;;;29.98;17.70;;;;;;;19.71;68.18;99761.44;4353628;32;35090;-85
2022/06/01 04:44:35;;;;;;;32.10;19.03;;;;;;;19.72;68.13;99750.59;4344171;32;33591;-86
2022/06/01 04:47:08;;;;;;;34.63;20.00;;;;;;;19.84;67.73;99754.06;4342918;32;33619;-85
2022/06/01 04:49:36;;;;;;;29.02;19.00;;;;;;;19.57;68.54;99758.03;4348543;32;32899;-86
2022/06/01 04:52:06;;;;;;;33.15;19.05;;;;;;;19.91;67.32;99749.91;4348565;32;33933;-86
2022/06/01 04:54:35;;;;;;;33.63;18.52;;;;;;;19.88;67.37;99756.34;4348812;32;33898;-85
2022/06/01 04:57:03;;;;;;;31.42;19.12;;;;;;;19.85;67.44;99753.97;4344758;32;34121;-87
2022/06/01 04:59:32;;;;;;;32.67;19.85;;;;;;;19.87;67.48;99751.13;4342530;32;33769;-84
2022/06/01 05:02:00;;;;;;;33.28;19.48;;;;;;;20.01;67.45;99761.56;4341752;33;33215;-83
2022/06/01 05:04:31;;;;;;;25.37;17.45;;;;;;;19.73;68.70;99756.78;4346182;33;33915;-85
2022/06/01 05:07:02;;;;;;;24.70;17.50;;;;;;;20.13;68.54;99754.31;4336781;32;33000;-85
2022/06/01 05:09:33;;;;;;;26.95;17.35;;;;;;;20.03;67.82;99751.53;4336316;33;33048;-84
2022/06/01 05:12:09;;;;;;;28.45;15.65;;;;;;;20.13;67.45;99748.94;4351351;32;33231;-84
2022/06/01 05:14:38;;;;;;;21.45;14.40;;;;;;;20.53;66.16;99750.97;4348376;33;32970;-84
2022/06/01 05:17:07;;;;;;;23.00;14.27;;;;;;;20.69;65.38;99757.53;4348120;33;34011;-84
2022/06/01 05:19:42;;;;;;;20.73;13.02;;;;;;;20.12;66.27;99757.97;4347409;32;34401;-84
2022/06/01 05:22:14;;;;;;;21.67;12.90;;;;;;;20.61;64.87;99764.59;4347961;33;34044;-84
2022/06/01 05:24:43;;;;;;;14.23;9.88;;;;;;;20.66;64.38;99773.94;4347976;33;33215;-84
2022/06/01 05:27:12;;;;;;;14.00;10.05;;;;;;;20.43;64.04;99773.19;4341063;32;34381;-84
2022/06/01 05:29:40;;;;;;;17.42;10.32;;;;;;;20.71;64.06;99769.00;4362489;32;34145;-84
2022/06/01 05:32:10;;;;;;;12.98;9.55;;;;;;;20.92;63.50;99776.19;4360687;32;34182;-83
2022/06/01 05:34:39;;;;;;;14.93;8.82;;;;;;;20.82;63.45;99777.97;4358775;32;33852;-82
2022/06/01 05:37:07;;;;;;;9.82;7.05;;;;;;;20.88;62.31;99777.44;4345420;32;32880;-81
2022/06/01 05:39:34;;;;;;;9.77;6.35;;;;;;;20.48;63.45;99785.38;4361004;32;34506;-85
2022/06/01 05:42:03;;;;;;;11.27;7.70;;;;;;;20.91;62.98;99786.06;4333550;33;33654;-84
2022/06/01 05:44:31;;;;;;;9.27;6.20;;;;;;;21.12;62.21;99788.69;4359339;32;32619;-85
2022/06/01 05:47:01;;;;;;;9.88;5.25;;;;;;;20.98;62.19;99794.44;4347949;32;34162;-84
2022/06/01 05:49:29;;;;;;;7.53;4.95;;;;;;;20.87;61.98;99802.56;4347703;33;33554;-84
2022/06/01 05:51:58;;;;;;;10.18;5.28;;;;;;;20.79;62.27;99813.09;4362509;32;33483;-84
2022/06/01 05:54:28;;;;;;;9.98;5.85;;;;;;;20.79;61.88;99805.91;4347518;33;32721;-85
2022/06/01 05:56:56;;;;;;;8.45;5.60;;;;;;;20.72;62.51;99815.47;4349262;32;34655;-85
2022/06/01 05:59:31;;;;;;;9.68;5.10;;;;;;;20.49;62.94;99811.22;4351224;32;33787;-84
2022/06/01 06:02:01;;;;;;;6.00;4.57;;;;;;;20.77;62.23;99812.41;4359675;32;33363;-84
2022/06/01 06:04:30;;;;;;;6.32;4.70;;;;;;;20.77;62.20;99812.41;4350688;32;33692;-84
2022/06/01 06:06:59;;;;;;;12.85;5.60;;;;;;;20.58;62.93;99815.81;4351929;32;34023;-84
2022/06/01 06:09:34;;;;;;;7.18;4.87;;;;;;;20.82;62.52;99804.81;4359211;32;35649;-85
2022/06/01 06:12:03;;;;;;;8.93;5.53;;;;;;;20.56;62.88;99805.22;4347585;33;31963;-86
2022/06/01 06:14:33;;;;;;;9.00;5.87;;;;;;;20.25;64.25;99806.06;4362933;32;33583;-85
2022/06/01 06:17:05;;;;;;;7.60;5.68;;;;;;;20.42;63.94;99810.87;4360596;32;33911;-85
2022/06/01 06:19:33;;;;;;;6.43;5.25;;;;;;;20.74;63.58;99818.87;4350291;32;32800;-85
2022/06/01 06:22:06;;;;;;;8.63;5.45;;;;;;;20.42;63.87;99810.87;4339984;32;32723;-85
2022/06/01 06:24:34;;;;;;;6.97;5.07;;;;;;;20.62;63.87;99818.09;4374761;32;32611;-85
2022/06/01 06:27:04;;;;;;;9.75;6.65;;;;;;;20.75;63.10;99825.06;4373665;32;33665;-85
2022/06/01 06:29:32;;;;;;;7.10;5.75;;;;;;;20.45;63.51;99824.84;4367353;32;32763;-86
2022/06/01 06:31:59;;;;;;;11.63;7.45;;;;;;;20.37;64.35;99832.72;4323449;33;32995;-85
2022/06/01 06:34:28;;;;;;;7.60;6.10;;;;;;;20.15;64.88;99833.63;4339259;32;33960;-86
2022/06/01 06:36:58;;;;;;;8.63;6.20;;;;;;;20.56;64.12;99828.50;4362263;32;33122;-85
2022/06/01 06:39:29;;;;;;;11.15;6.05;;;;;;;20.60;63.91;99833.44;4371566;32;34198;-85
2022/06/01 06:41:57;;;;;;;6.30;5.70;;;;;;;20.70;63.45;99837.09;4348436;32;32421;-85
2022/06/01 06:44:26;;;;;;;16.37;6.53;;;;;;;20.46;63.54;99841.78;4354833;32;32879;-85
2022/06/01 06:46:56;;;;;;;8.27;5.85;;;;;;;20.40;63.52;99845.00;4372429;32;33592;-85
2022/06/01 06:49:23;;;;;;;10.40;6.32;;;;;;;20.23;64.19;99845.56;4355082;32;33490;-86
2022/06/01 06:51:51;;;;;;;7.95;5.57;;;;;;;20.30;64.17;99844.06;4345658;32;32884;-85
2022/06/01 06:54:23;;;;;;;7.27;6.33;;;;;;;20.38;64.30;99849.66;4374592;32;33472;-85
2022/06/01 06:56:54;;;;;;;8.60;5.37;;;;;;;20.74;63.16;99850.22;4348356;32;33036;-85
2022/06/01 06:59:23;;;;;;;9.35;6.70;;;;;;;21.05;62.57;99849.28;4374631;32;33405;-85
2022/06/01 07:01:53;;;;;;;7.55;5.93;;;;;;;21.01;62.87;99844.31;4362210;32;33364;-85
2022/06/01 07:04:24;;;;;;;;;;;;;;;20.51;64.39;99850.34;4360409;32;33884;-85
2022/06/01 07:06:52;;;;;;;8.48;5.85;;;;;;;20.65;63.44;99847.34;4374420;32;33807;-86
2022/06/01 07:09:20;;;;;;;9.50;5.82;;;;;;;21.19;62.75;99856.16;4361166;32;32759;-85
2022/06/01 07:11:49;;;;;;;7.28;5.28;;;;;;;21.28;61.97;99862.56;4359600;32;32974;-85
2022/06/01 07:14:21;;;;;;;8.52;5.93;;;;;;;21.21;62.47;99872.97;4353405;32;33604;-85
2022/06/01 07:16:50;;;;;;;9.57;5.32;;;;;;;21.08;62.34;99875.00;4344198;32;33644;-85
2022/06/01 07:19:19;;;;;;;7.03;5.28;;;;;;;21.07;62.76;99879.53;4351285;32;34413;-85
2022/06/01 07:21:57;;;;;;;6.53;5.40;;;;;;;21.40;60.52;99867.72;4365351;32;33432;-85
2022/06/01 07:24:26;;;;;;;7.28;5.45;;;;;;;21.03;62.64;99883.50;4347318;33;33982;-85
2022/06/01 07:26:56;;;;;;;8.75;5.00;;;;;;;21.27;61.59;99874.28;4354138;32;34384;-85
2022/06/01 07:29:24;;;;;;;6.00;4.53;;;;;;;21.27;61.07;99868.91;4373255;32;33401;-85
2022/06/01 07:31:52;;;;;;;7.85;4.03;;;;;;;21.23;62.56;99863.81;4357675;32;33252;-85
2022/06/01 07:34:23;;;;;;;8.67;3.40;;;;;;;21.54;61.75;99866.50;4365189;32;33288;-85
2022/06/01 07:43:05;;;;;;;4.90;3.55;;;;;;;21.75;60.81;99858.41;4353279;32;34704;-85
2022/06/01 07:45:45;;;;;;;4.55;2.75;;;;;;;22.70;55.79;99863.22;4334492;33;32861;-85
2022/06/01 07:48:13;;;;;;;4.30;3.43;;;;;;;22.64;57.54;99867.28;4333663;33;33862;-85
2022/06/01 07:51:01;;;;;;;5.10;2.67;;;;;;;23.00;55.41;99865.72;4345962;32;34594;-85
2022/06/01 07:56:09;;;;;;;3.58;2.87;;;;;;;23.20;55.94;99874.59;4362519;32;33209;-85
2022/06/01 07:58:39;;;;;;;3.97;3.17;;;;;;;23.01;55.75;99866.56;4358876;32;32913;-85
2022/06/01 08:01:11;;;;;;;4.70;3.25;;;;;;;23.45;54.75;99869.56;4345014;32;33338;-85
2022/06/01 08:03:41;;;;;;;3.33;2.72;;;;;;;23.39;54.71;99875.53;4352296;32;33395;-85
2022/06/01 08:06:11;;;;;;;2.20;2.00;;;;;;;22.86;56.09;99881.47;4359499;32;34637;-86
2022/06/01 08:08:39;;;;;;;3.03;2.15;;;;;;;23.00;55.04;99881.88;4373393;32;34052;-86
2022/06/01 08:11:07;;;;;;;2.08;1.87;;;;;;;22.92;56.86;99878.22;4361307;32;32451;-85
2022/06/01 08:13:38;;;;;;;3.60;1.97;;;;;;;23.17;55.35;99884.84;4361706;32;32613;-85
2022/06/01 08:16:08;;;;;;;2.30;1.85;;;;;;;23.70;54.19;99887.78;4370776;32;33843;-86
2022/06/01 08:18:36;;;;;;;2.67;2.03;;;;;;;23.61;53.17;99885.97;4351452;32;34204;-86
2022/06/01 08:21:04;;;;;;;2.70;1.67;;;;;;;23.68;52.25;99884.38;4344245;33;33743;-86
2022/06/01 08:23:33;;;;;;;2.80;2.50;;;;;;;23.96;52.07;99881.69;4337637;32;32393;-85
2022/06/01 08:26:01;;;;;;;10.27;2.40;;;;;;;24.24;50.59;99879.81;4339515;32;33201;-86
2022/06/01 08:28:30;;;;;;;4.37;2.62;;;;;;;24.39;50.54;99889.09;4355880;32;33879;-85
2022/06/01 08:30:58;;;;;;;2.92;2.17;;;;;;;24.47;50.50;99885.66;4367706;32;33538;-86
2022/06/01 08:33:26;;;;;;;6.05;2.50;;;;;;;24.91;50.19;99888.38;4354454;32;31962;-86
2022/06/01 08:35:55;;;;;;;5.53;2.75;;;;;;;24.78;48.82;99895.06;4334272;32;33822;-85
2022/06/01 08:38:24;;;;;;;1.87;1.70;;;;;;;25.10;49.81;99895.47;4346575;32;33431;-86
2022/06/01 08:40:57;;;;;;;3.25;1.95;;;;;;;25.02;49.72;99891.69;4343331;32;33734;-85
2022/06/01 08:43:38;;;;;;;5.78;2.20;;;;;;;25.34;49.00;99897.50;4360639;32;34401;-88
2022/06/01 08:46:07;;;;;;;2.40;2.12;;;;;;;25.50;48.47;99890.34;4350595;32;34333;-87
2022/06/01 08:48:46;;;;;;;3.33;2.37;;;;;;;25.52;47.72;99893.72;4350679;32;33995;-84
2022/06/01 08:51:18;;;;;;;4.35;3.17;;;;;;;25.66;46.48;99889.56;4363236;32;34278;-85
2022/06/01 08:53:53;;;;;;;2.25;2.00;;;;;;;25.51;46.80;99891.19;4349157;32;33066;-85
2022/06/01 08:56:44;;;;;;;4.10;2.10;;;;;;;25.41;47.76;99893.16;4355237;32;33066;-87
2022/06/01 08:59:26;;;;;;;2.58;2.20;;;;;;;25.21;47.20;99896.09;4372475;32;34078;-85
2022/06/01 09:02:05;;;;;;;2.42;2.10;;;;;;;25.47;47.18;99900.63;4349054;32;32889;-85
2022/06/01 09:04:53;;;;;;;2.78;2.08;;;;;;;25.56;45.97;99894.25;4360021;32;33339;-85
2022/06/01 09:07:48;;;;;;;2.17;1.98;;;;;;;26.00;45.21;99892.25;4354081;32;34260;-85
2022/06/01 09:10:46;;;;;;;3.17;1.90;;;;;;;25.83;46.06;99892.34;4362898;32;34723;-85
2022/06/01 09:13:23;;;;;;;1.67;1.50;;;;;;;25.97;44.81;99903.44;4358028;32;33738;-85
2022/06/01 09:16:03;;;;;;;2.72;1.77;;;;;;;25.85;44.92;99893.91;4360760;32;34021;-85
2022/06/01 09:18:53;;;;;;;2.40;1.67;;;;;;;26.28;44.43;99895.56;4350747;32;33815;-85
2022/06/01 09:24:28;;;;;;;2.47;1.65;;;;;;;26.67;43.50;99900.38;4352746;32;33681;-85
2022/06/01 09:27:00;;;;;;;2.78;1.98;;;;;;;26.41;42.70;99905.91;4350686;32;33494;-84
2022/06/01 09:29:32;;;;;;;2.30;1.95;;;;;;;26.85;43.52;99892.09;4363316;32;34572;-85
2022/06/01 09:32:05;;;;;;;1.45;1.35;;;;;;;26.99;42.54;99904.13;4365634;32;33360;-85
2022/06/01 09:34:36;;;;;;;2.78;1.70;;;;;;;26.59;43.01;99907.66;4365574;32;33109;-85
2022/06/01 09:37:31;;;;;;;1.55;1.30;;;;;;;26.69;41.16;99903.78;4363112;32;33607;-85
2022/06/01 09:40:04;;;;;;;1.87;1.50;;;;;;;26.96;40.89;99896.31;4363066;32;33599;-84
2022/06/01 09:42:41;;;;;;;1.87;1.10;;;;;;;27.01;40.03;99902.06;4362966;32;33880;-84
2022/06/01 09:45:44;;;;;;;1.77;1.30;;;;;;;26.73;39.52;99910.56;4363870;32;32849;-85
2022/06/01 09:48:23;;;;;;;2.37;1.95;;;;;;;26.55;41.00;99910.72;4377827;32;33113;-84
2022/06/01 09:51:04;;;;;;;1.83;1.40;;;;;;;26.95;40.32;99910.88;4377861;32;33591;-84
2022/06/01 09:53:44;;;;;;;1.50;1.40;;;;;;;26.76;41.16;99906.66;4364570;32;34018;-84
2022/06/01 09:56:29;;;;;;;1.30;1.10;;;;;;;26.85;40.39;99908.34;4365547;32;34450;-88
2022/06/01 10:08:29;;;;;;;;;;;;;;;26.85;39.59;99904.78;4379014;32;33541;-93
2022/06/01 10:11:30;;;;;;;1.33;1.10;;;;;;;27.03;39.77;99909.03;4379322;32;33234;-95
2022/06/01 10:14:24;;;;;;;3.45;1.27;;;;;;;27.08;39.42;99913.09;4378178;32;32866;-87
2022/06/01 10:17:28;;;;;;;2.25;1.30;;;;;;;27.41;39.38;99897.66;4377717;32;33335;-86
2022/06/01 10:20:09;;;;;;;1.50;1.10;;;;;;;27.91;37.50;99904.63;4363692;32;33024;-86
2022/06/01 10:22:43;;;;;;;1.42;1.27;;;;;;;27.97;37.23;99903.94;4377553;32;32675;-86
2022/06/01 10:25:25;;;;;;;1.65;1.12;;;;;;;28.23;37.63;99909.06;4377608;32;33166;-87
2022/06/01 10:27:57;;;;;;;1.27;1.17;;;;;;;28.57;35.09;99900.53;4340917;32;34940;-86
2022/06/01 10:30:37;;;;;;;1.40;1.25;;;;;;;27.88;36.31;99911.25;4352811;32;33640;-87
2022/06/01 10:33:36;;;;;;;1.87;1.30;;;;;;;28.19;35.50;99913.12;4377612;32;33972;-86
2022/06/01 10:36:13;;;;;;;0.98;0.95;;;;;;;28.14;36.08;99916.38;4355663;32;33216;-86
2022/06/01 10:39:11;;;;;;;2.67;1.17;;;;;;;28.38;36.00;99907.28;4377526;32;33131;-86
2022/06/01 10:41:51;;;;;;;2.08;1.17;;;;;;;28.73;35.60;99905.88;4352769;32;32363;-86
2022/06/01 10:47:28;;;;;;;2.33;1.48;;;;;;;28.61;35.78;99898.31;4365031;32;33274;-86
2022/06/01 10:50:20;;;;;;;8.80;1.60;;;;;;;28.57;36.72;99904.09;4365694;32;34378;-86
2022/06/01 10:53:33;;;;;;;1.23;1.12;;;;;;;28.73;35.01;99896.88;4364737;32;33876;-87
2022/06/01 10:56:02;;;;;;;0.85;0.85;;;;;;;29.02;35.03;99904.31;4365505;32;32503;-86
2022/06/01 10:58:31;;;;;;;0.98;0.77;;;;;;;28.76;34.07;99904.66;4377399;32;33792;-88
2022/06/01 11:01:09;;;;;;;1.77;1.10;;;;;;;29.17;33.86;99902.44;4377337;32;33598;-86
2022/06/01 11:04:05;;;;;;;2.30;1.10;;;;;;;29.22;32.68;99905.47;4376327;32;33620;-85
2022/06/01 11:06:56;;;;;;;1.27;0.80;;;;;;;29.40;32.18;99904.28;4374755;32;33012;-85
2022/06/01 11:09:55;;;;;;;1.35;0.93;;;;;;;29.07;33.14;99912.75;4362420;32;33243;-86
2022/06/01 11:12:34;;;;;;;1.15;0.85;;;;;;;29.44;33.34;99901.00;4371705;32;32606;-86
2022/06/01 11:15:19;;;;;;;6.03;0.90;;;;;;;29.46;32.81;99896.19;4337978;32;34125;-87
2022/06/01 11:18:03;;;;;;;2.70;0.88;;;;;;;29.41;32.29;99897.78;4337816;32;32638;-90
2022/06/01 11:20:57;;;;;;;1.00;0.80;;;;;;;29.60;33.29;99902.72;4362463;32;32644;-89
2022/06/01 11:23:57;;;;;;;3.17;1.20;;;;;;;29.42;32.07;99904.91;4370939;32;33286;-89
2022/06/01 11:27:16;;;;;;;1.33;0.93;;;;;;;29.17;33.34;99897.00;4404258;32;32629;-92
2022/06/01 11:30:19;;;;;;;1.23;1.12;;;;;;;28.49;33.92;99900.63;4360266;32;33323;-92
2022/06/01 11:33:22;;;;;;;1.80;0.82;;;;;;;28.45;33.98;99902.00;4363469;32;33042;-93
2022/06/01 11:36:37;;;;;;;2.50;1.30;;;;;;;28.71;34.61;99890.75;4371480;32;33816;-89
2022/06/01 11:39:45;;;;;;;1.95;1.08;;;;;;;29.09;33.66;99886.22;4364496;32;33228;-89
2022/06/01 11:42:22;;;;;;;1.40;0.82;;;;;;;29.24;33.61;99881.63;4354313;32;32521;-90
2022/06/01 11:44:58;;;;;;;2.50;0.98;;;;;;;29.04;33.05;99881.31;4344258;32;32699;-90
2022/06/01 11:47:34;;;;;;;2.12;0.85;;;;;;;28.77;32.80;99890.91;4356612;32;32763;-89
2022/06/01 11:50:17;;;;;;;1.30;1.12;;;;;;;28.98;33.11;99881.22;4358375;32;32495;-90
2022/06/01 11:52:56;;;;;;;1.37;0.90;;;;;;;28.89;33.14;99885.84;4354886;32;32259;-89
2022/06/01 11:55:36;;;;;;;1.20;0.95;;;;;;;28.89;31.90;99882.28;4362017;32;33906;-89
2022/06/01 11:58:13;;;;;;;2.12;1.27;;;;;;;28.64;33.51;99879.78;4362602;32;32814;-89
2022/06/01 12:00:51;;;;;;;1.48;1.00;;;;;;;28.81;32.21;99880.47;4352887;32;32737;-90
2022/06/01 12:03:41;;;;;;;1.15;0.80;;;;;;;28.56;35.47;99882.56;4343368;32;32402;-89
2022/06/01 12:06:14;;;;;;;1.23;0.90;;;;;;;29.09;32.59;99888.94;4351639;32;32555;-90
2022/06/01 12:09:03;;;;;;;1.37;0.85;;;;;;;29.39;31.70;99880.81;4361754;32;33684;-90
2022/06/01 12:11:41;;;;;;;0.80;0.80;;;;;;;29.41;31.95;99879.59;4356890;32;33657;-90
2022/06/01 12:14:28;;;;;;;;;;;;;;;29.62;32.26;99878.87;4356824;32;32911;-90
2022/06/01 12:17:15;;;;;;;1.58;1.17;;;;;;;29.52;30.87;99883.72;4357752;32;34165;-89
2022/06/01 12:20:29;;;;;;;2.30;1.80;;;;;;;29.41;33.54;99887.75;4365187;32;33518;-88
2022/06/01 12:29:02;;;;;;;9.43;1.80;;;;;;;30.17;31.71;99872.06;4370832;32;34492;-88
2022/06/01 12:31:33;;;;;;;4.12;0.90;;;;;;;30.06;29.16;99867.09;4355552;32;32561;-88
2022/06/01 12:34:10;;;;;;;1.60;0.90;;;;;;;29.80;30.99;99873.88;4366012;32;32868;-88
2022/06/01 12:36:44;;;;;;;0.57;0.57;;;;;;;30.15;28.75;99873.28;4353687;32;32210;-88
2022/06/01 12:39:58;;;;;;;1.35;1.00;;;;;;;29.78;29.94;99873.25;4366236;32;33634;-88
2022/06/01 12:42:38;;;;;;;2.33;1.05;;;;;;;29.84;28.78;99867.03;4366043;32;33000;-88
2022/06/01 12:48:00;;;;;;;1.08;0.70;;;;;;;29.85;30.40;99863.25;4376361;32;33211;-88
2022/06/01 12:50:30;;;;;;;3.20;0.80;;;;;;;30.21;29.59;99864.37;4389894;32;33643;-88